sensor_id;sensor_type;location;lat;lon;timestamp;pressure;altitude;pressure_sealevel;temperature;humidity
38716;BME280;24833;49.324;8.694;2022-09-09T00:02:22;99345.84;;;17.48;61.78
38716;BME280;24833;49.324;8.694;2022-09-09T00:05:13;99354.75;;;17.49;62.01
38716;BME280;24833;49.324;8.694;2022-09-09T00:07:52;99347.47;;;17.49;62.68
38716;BME280;24833;49.324;8.694;2022-09-09T00:13:34;99356.63;;;17.48;61.52
38716;BME280;24833;49.324;8.694;2022-09-09T00:16:21;99340.69;;;17.47;61.50
38716;BME280;24833;49.324;8.694;2022-09-09T00:21:30;99341.50;;;17.47;62.73
38716;BME280;24833;49.324;8.694;2022-09-09T00:24:04;99343.13;;;17.48;62.80
38716;BME280;24833;49.324;8.694;2022-09-09T00:26:48;99329.91;;;17.47;62.35
38716;BME280;24833;49.324;8.694;2022-09-09T00:30:12;99339.06;;;17.46;62.50
38716;BME280;24833;49.324;8.694;2022-09-09T00:32:22;99337.41;;;17.44;63.28
38716;BME280;24833;49.324;8.694;2022-09-09T00:35:04;99344.69;;;17.44;62.78
38716;BME280;24833;49.324;8.694;2022-09-09T00:37:39;99338.22;;;17.45;63.20
38716;BME280;24833;49.324;8.694;2022-09-09T00:40:30;99346.31;;;17.45;62.46
38716;BME280;24833;49.324;8.694;2022-09-09T00:43:27;99338.22;;;17.45;62.32
38716;BME280;24833;49.324;8.694;2022-09-09T00:55:03;99337.19;;;17.46;62.54
38716;BME280;24833;49.324;8.694;2022-09-09T00:57:34;99350.91;;;17.44;63.34
38716;BME280;24833;49.324;8.694;2022-09-09T01:00:24;99348.22;;;17.44;62.32
38716;BME280;24833;49.324;8.694;2022-09-09T01:08:58;99353.31;;;17.41;63.35
38716;BME280;24833;49.324;8.694;2022-09-09T01:11:55;99357.09;;;17.40;63.20
38716;BME280;24833;49.324;8.694;2022-09-09T01:17:28;99355.44;;;17.39;63.04
38716;BME280;24833;49.324;8.694;2022-09-09T01:20:15;99355.69;;;17.37;63.76
38716;BME280;24833;49.324;8.694;2022-09-09T01:26:24;99352.16;;;17.37;63.26
38716;BME280;24833;49.324;8.694;2022-09-09T01:28:54;99347.03;;;17.35;64.29
38716;BME280;24833;49.324;8.694;2022-09-09T01:34:38;99343.50;;;17.35;63.66
38716;BME280;24833;49.324;8.694;2022-09-09T01:37:12;99346.78;;;17.37;63.66
38716;BME280;24833;49.324;8.694;2022-09-09T01:39:42;99347.28;;;17.34;64.44
38716;BME280;24833;49.324;8.694;2022-09-09T01:42:16;99357.50;;;17.32;64.16
38716;BME280;24833;49.324;8.694;2022-09-09T01:44:44;99362.88;;;17.32;64.00
38716;BME280;24833;49.324;8.694;2022-09-09T01:47:12;99366.66;;;17.31;64.06
38716;BME280;24833;49.324;8.694;2022-09-09T01:49:58;99368.81;;;17.29;64.45
38716;BME280;24833;49.324;8.694;2022-09-09T01:52:28;99364.47;;;17.28;64.09
38716;BME280;24833;49.324;8.694;2022-09-09T01:54:56;99366.91;;;17.29;64.33
38716;BME280;24833;49.324;8.694;2022-09-09T02:00:11;99368.81;;;17.29;63.65
38716;BME280;24833;49.324;8.694;2022-09-09T02:06:44;99356.63;;;17.26;64.18
38716;BME280;24833;49.324;8.694;2022-09-09T02:08:57;99360.38;;;17.25;64.52
38716;BME280;24833;49.324;8.694;2022-09-09T02:11:28;99364.97;;;17.25;64.76
38716;BME280;24833;49.324;8.694;2022-09-09T02:14:13;99352.53;;;17.24;64.31
38716;BME280;24833;49.324;8.694;2022-09-09T02:16:56;99357.13;;;17.23;63.91
38716;BME280;24833;49.324;8.694;2022-09-09T02:19:49;99356.81;;;17.20;64.12
38716;BME280;24833;49.324;8.694;2022-09-09T02:22:26;99355.41;;;17.17;64.70
38716;BME280;24833;49.324;8.694;2022-09-09T02:24:56;99361.88;;;17.16;64.77
38716;BME280;24833;49.324;8.694;2022-09-09T02:27:26;99357.56;;;17.15;64.47
38716;BME280;24833;49.324;8.694;2022-09-09T02:29:56;99365.66;;;17.15;64.62
38716;BME280;24833;49.324;8.694;2022-09-09T02:32:35;99370.22;;;17.14;64.73
38716;BME280;24833;49.324;8.694;2022-09-09T02:35:11;99366.16;;;17.12;64.91
38716;BME280;24833;49.324;8.694;2022-09-09T02:37:42;99359.91;;;17.11;64.56
38716;BME280;24833;49.324;8.694;2022-09-09T02:40:12;99365.81;;;17.08;64.30
38716;BME280;24833;49.324;8.694;2022-09-09T02:42:48;99364.19;;;17.07;65.02
38716;BME280;24833;49.324;8.694;2022-09-09T02:45:20;99352.84;;;17.05;64.71
38716;BME280;24833;49.324;8.694;2022-09-09T02:51:21;99356.53;;;16.99;64.10
38716;BME280;24833;49.324;8.694;2022-09-09T02:54:17;99358.63;;;16.97;64.16
38716;BME280;24833;49.324;8.694;2022-09-09T02:56:53;99362.66;;;16.95;64.58
38716;BME280;24833;49.324;8.694;2022-09-09T02:59:31;99354.22;;;16.91;65.01
38716;BME280;24833;49.324;8.694;2022-09-09T03:01:58;99345.56;;;16.89;64.67
38716;BME280;24833;49.324;8.694;2022-09-09T03:04:27;99341.50;;;16.86;65.00
38716;BME280;24833;49.324;8.694;2022-09-09T03:06:56;99338.22;;;16.84;64.65
38716;BME280;24833;49.324;8.694;2022-09-09T03:09:24;99336.84;;;16.82;64.65
38716;BME280;24833;49.324;8.694;2022-09-09T03:11:53;99345.44;;;16.79;64.73
38716;BME280;24833;49.324;8.694;2022-09-09T03:14:22;99339.72;;;16.75;64.58
38716;BME280;24833;49.324;8.694;2022-09-09T03:16:53;99341.84;;;16.73;63.21
38716;BME280;24833;49.324;8.694;2022-09-09T03:19:21;99341.50;;;16.70;64.71
38716;BME280;24833;49.324;8.694;2022-09-09T03:21:49;99336.59;;;16.67;64.66
38716;BME280;24833;49.324;8.694;2022-09-09T03:24:17;99342.44;;;16.63;65.13
38716;BME280;24833;49.324;8.694;2022-09-09T03:26:44;99340.25;;;16.60;64.96
38716;BME280;24833;49.324;8.694;2022-09-09T03:29:14;99334.78;;;16.55;64.50
38716;BME280;24833;49.324;8.694;2022-09-09T03:31:41;99339.59;;;16.53;64.97
38716;BME280;24833;49.324;8.694;2022-09-09T03:34:09;99346.28;;;16.51;64.90
38716;BME280;24833;49.324;8.694;2022-09-09T03:36:37;99348.66;;;16.47;64.76
38716;BME280;24833;49.324;8.694;2022-09-09T03:39:04;99345.41;;;16.45;64.75
38716;BME280;24833;49.324;8.694;2022-09-09T03:41:31;99330.78;;;16.41;64.78
38716;BME280;24833;49.324;8.694;2022-09-09T03:44:00;99337.50;;;16.39;65.30
38716;BME280;24833;49.324;8.694;2022-09-09T03:46:32;99340.66;;;16.35;64.85
38716;BME280;24833;49.324;8.694;2022-09-09T03:48:59;99339.28;;;16.33;64.87
38716;BME280;24833;49.324;8.694;2022-09-09T03:51:26;99345.94;;;16.30;65.43
38716;BME280;24833;49.324;8.694;2022-09-09T03:53:54;99342.69;;;16.28;65.05
38716;BME280;24833;49.324;8.694;2022-09-09T03:56:26;99349.16;;;16.27;65.43
38716;BME280;24833;49.324;8.694;2022-09-09T03:58:53;99346.69;;;16.26;65.71
38716;BME280;24833;49.324;8.694;2022-09-09T04:01:20;99341.31;;;16.26;65.33
38716;BME280;24833;49.324;8.694;2022-09-09T04:03:48;99340.72;;;16.24;65.74
38716;BME280;24833;49.324;8.694;2022-09-09T04:06:15;99344.22;;;16.24;65.58
38716;BME280;24833;49.324;8.694;2022-09-09T04:08:45;99349.88;;;16.23;65.21
38716;BME280;24833;49.324;8.694;2022-09-09T04:11:15;99349.63;;;16.24;65.35
38716;BME280;24833;49.324;8.694;2022-09-09T04:13:44;99353.13;;;16.25;65.45
38716;BME280;24833;49.324;8.694;2022-09-09T04:16:13;99355.81;;;16.25;65.40
38716;BME280;24833;49.324;8.694;2022-09-09T04:18:43;99355.81;;;16.25;65.57
38716;BME280;24833;49.324;8.694;2022-09-09T04:21:10;99356.88;;;16.24;65.50
38716;BME280;24833;49.324;8.694;2022-09-09T04:23:39;99357.69;;;16.24;65.94
38716;BME280;24833;49.324;8.694;2022-09-09T04:26:06;99355.00;;;16.24;65.41
38716;BME280;24833;49.324;8.694;2022-09-09T04:28:35;99368.72;;;16.23;65.68
38716;BME280;24833;49.324;8.694;2022-09-09T04:31:09;99361.72;;;16.22;65.87
38716;BME280;24833;49.324;8.694;2022-09-09T04:33:39;99364.16;;;16.23;65.30
38716;BME280;24833;49.324;8.694;2022-09-09T04:36:09;99364.41;;;16.22;65.53
38716;BME280;24833;49.324;8.694;2022-09-09T04:38:36;99365.47;;;16.21;65.21
38716;BME280;24833;49.324;8.694;2022-09-09T04:41:04;99372.47;;;16.22;65.33
38716;BME280;24833;49.324;8.694;2022-09-09T04:43:34;99373.53;;;16.21;65.71
38716;BME280;24833;49.324;8.694;2022-09-09T04:46:04;99378.13;;;16.20;65.49
38716;BME280;24833;49.324;8.694;2022-09-09T04:48:32;99376.50;;;16.19;65.69
38716;BME280;24833;49.324;8.694;2022-09-09T04:51:06;99377.88;;;16.22;65.26
38716;BME280;24833;49.324;8.694;2022-09-09T04:53:34;99385.38;;;16.20;66.31
38716;BME280;24833;49.324;8.694;2022-09-09T04:56:13;99381.28;;;16.17;65.25
38716;BME280;24833;49.324;8.694;2022-09-09T04:58:46;99380.47;;;16.17;66.14
38716;BME280;24833;49.324;8.694;2022-09-09T05:01:20;99384.22;;;16.16;65.29
38716;BME280;24833;49.324;8.694;2022-09-09T05:03:50;99384.47;;;16.14;65.81
38716;BME280;24833;49.324;8.694;2022-09-09T05:06:22;99380.97;;;16.14;66.04
38716;BME280;24833;49.324;8.694;2022-09-09T05:08:55;99386.34;;;16.14;66.17
38716;BME280;24833;49.324;8.694;2022-09-09T05:11:29;99382.03;;;16.13;65.89
38716;BME280;24833;49.324;8.694;2022-09-09T05:14:00;99380.16;;;16.13;66.02
38716;BME280;24833;49.324;8.694;2022-09-09T05:16:29;99387.41;;;16.13;65.88
38716;BME280;24833;49.324;8.694;2022-09-09T05:18:57;99391.16;;;16.12;66.17
38716;BME280;24833;49.324;8.694;2022-09-09T05:21:29;99389.28;;;16.12;66.32
38716;BME280;24833;49.324;8.694;2022-09-09T05:23:57;99390.09;;;16.13;66.60
38716;BME280;24833;49.324;8.694;2022-09-09T05:26:25;99398.19;;;16.13;66.60
38716;BME280;24833;49.324;8.694;2022-09-09T05:28:52;99405.47;;;16.12;66.35
38716;BME280;24833;49.324;8.694;2022-09-09T05:31:20;99410.59;;;16.14;66.72
38716;BME280;24833;49.324;8.694;2022-09-09T05:33:50;99410.91;;;16.17;66.16
38716;BME280;24833;49.324;8.694;2022-09-09T05:36:20;99409.03;;;16.18;66.40
38716;BME280;24833;49.324;8.694;2022-09-09T05:38:52;99410.69;;;16.19;66.63
38716;BME280;24833;49.324;8.694;2022-09-09T05:41:21;99406.94;;;16.20;66.30
38716;BME280;24833;49.324;8.694;2022-09-09T05:43:52;99403.19;;;16.21;66.54
38716;BME280;24833;49.324;8.694;2022-09-09T05:46:22;99404.00;;;16.21;66.33
38716;BME280;24833;49.324;8.694;2022-09-09T05:48:53;99409.13;;;16.23;66.44
38716;BME280;24833;49.324;8.694;2022-09-09T05:51:27;99406.44;;;16.23;66.56
38716;BME280;24833;49.324;8.694;2022-09-09T05:53:58;99411.03;;;16.22;66.19
38716;BME280;24833;49.324;8.694;2022-09-09T05:56:29;99412.66;;;16.23;66.11
38716;BME280;24833;49.324;8.694;2022-09-09T05:58:57;99417.22;;;16.23;66.41
38716;BME280;24833;49.324;8.694;2022-09-09T06:01:33;99425.06;;;16.24;66.13
38716;BME280;24833;49.324;8.694;2022-09-09T06:04:02;99412.41;;;16.25;66.51
38716;BME280;24833;49.324;8.694;2022-09-09T06:06:34;99411.38;;;16.26;66.48
38716;BME280;24833;49.324;8.694;2022-09-09T06:09:11;99416.25;;;16.29;66.52
38716;BME280;24833;49.324;8.694;2022-09-09T06:11:41;99407.13;;;16.30;66.87
38716;BME280;24833;49.324;8.694;2022-09-09T06:14:10;99413.09;;;16.32;66.62
38716;BME280;24833;49.324;8.694;2022-09-09T06:16:38;99413.66;;;16.34;66.63
38716;BME280;24833;49.324;8.694;2022-09-09T06:19:12;99414.81;;;16.38;66.82
38716;BME280;24833;49.324;8.694;2022-09-09T06:21:40;99414.59;;;16.40;67.06
38716;BME280;24833;49.324;8.694;2022-09-09T06:24:09;99419.72;;;16.41;66.70
38716;BME280;24833;49.324;8.694;2022-09-09T06:26:38;99411.72;;;16.46;66.69
38716;BME280;24833;49.324;8.694;2022-09-09T06:29:10;99417.44;;;16.50;67.49
38716;BME280;24833;49.324;8.694;2022-09-09T06:31:37;99412.97;;;16.55;67.28
38716;BME280;24833;49.324;8.694;2022-09-09T06:34:11;99422.22;;;16.59;67.22
38716;BME280;24833;49.324;8.694;2022-09-09T06:36:41;99417.47;;;16.67;67.63
38716;BME280;24833;49.324;8.694;2022-09-09T06:39:09;99419.44;;;16.71;68.21
38716;BME280;24833;49.324;8.694;2022-09-09T06:41:41;99412.25;;;16.77;68.20
38716;BME280;24833;49.324;8.694;2022-09-09T06:44:27;99418.56;;;16.82;68.40
38716;BME280;24833;49.324;8.694;2022-09-09T06:47:00;99420.28;;;16.88;68.19
38716;BME280;24833;49.324;8.694;2022-09-09T06:49:27;99424.94;;;16.93;68.73
38716;BME280;24833;49.324;8.694;2022-09-09T06:51:54;99423.97;;;16.99;68.81
38716;BME280;24833;49.324;8.694;2022-09-09T06:54:21;99425.69;;;17.05;68.77
38716;BME280;24833;49.324;8.694;2022-09-09T06:56:50;99421.16;;;17.11;68.65
38716;BME280;24833;49.324;8.694;2022-09-09T06:59:22;99421.00;;;17.17;68.96
38716;BME280;24833;49.324;8.694;2022-09-09T07:01:52;99425.66;;;17.22;68.80
38716;BME280;24833;49.324;8.694;2022-09-09T07:04:22;99423.84;;;17.28;68.73
38716;BME280;24833;49.324;8.694;2022-09-09T07:06:50;99427.44;;;17.33;68.93
38716;BME280;24833;49.324;8.694;2022-09-09T07:09:22;99432.66;;;17.40;69.40
38716;BME280;24833;49.324;8.694;2022-09-09T07:11:52;99427.31;;;17.45;69.23
38716;BME280;24833;49.324;8.694;2022-09-09T07:14:21;99433.06;;;17.49;69.08
38716;BME280;24833;49.324;8.694;2022-09-09T07:16:54;99442.31;;;17.53;68.92
38716;BME280;24833;49.324;8.694;2022-09-09T07:19:26;99438.00;;;17.57;68.99
38716;BME280;24833;49.324;8.694;2022-09-09T07:21:54;99433.75;;;17.61;69.39
38716;BME280;24833;49.324;8.694;2022-09-09T07:24:23;99438.41;;;17.65;69.40
38716;BME280;24833;49.324;8.694;2022-09-09T07:26:51;99436.38;;;17.73;69.52
38716;BME280;24833;49.324;8.694;2022-09-09T07:29:19;99439.94;;;17.78;70.34
38716;BME280;24833;49.324;8.694;2022-09-09T07:31:47;99439.75;;;17.85;69.76
38716;BME280;24833;49.324;8.694;2022-09-09T07:34:19;99434.41;;;17.90;69.94
38716;BME280;24833;49.324;8.694;2022-09-09T07:36:46;99429.09;;;17.95;70.00
38716;BME280;24833;49.324;8.694;2022-09-09T07:39:14;99434.84;;;18.04;69.89
38716;BME280;24833;49.324;8.694;2022-09-09T07:41:48;99439.50;;;18.08;70.00
38716;BME280;24833;49.324;8.694;2022-09-09T07:44:22;99438.75;;;18.13;69.84
38716;BME280;24833;49.324;8.694;2022-09-09T07:46:55;99441.75;;;18.16;69.79
38716;BME280;24833;49.324;8.694;2022-09-09T07:49:28;99449.94;;;18.21;69.72
38716;BME280;24833;49.324;8.694;2022-09-09T07:52:00;99453.78;;;18.26;69.88
38716;BME280;24833;49.324;8.694;2022-09-09T07:54:27;99439.19;;;18.27;69.67
38716;BME280;24833;49.324;8.694;2022-09-09T07:56:55;99441.38;;;18.30;69.75
38716;BME280;24833;49.324;8.694;2022-09-09T07:59:25;99447.31;;;18.32;69.38
38716;BME280;24833;49.324;8.694;2022-09-09T08:01:54;99447.09;;;18.33;68.93
38716;BME280;24833;49.324;8.694;2022-09-09T08:04:25;99449.53;;;18.35;69.04
38716;BME280;24833;49.324;8.694;2022-09-09T08:06:59;99444.41;;;18.38;68.94
38716;BME280;24833;49.324;8.694;2022-09-09T08:09:29;99444.75;;;18.42;69.44
38716;BME280;24833;49.324;8.694;2022-09-09T08:12:31;99458.34;;;18.52;69.75
38716;BME280;24833;49.324;8.694;2022-09-09T08:15:02;99446.28;;;18.60;69.73
38716;BME280;24833;49.324;8.694;2022-09-09T08:17:32;99449.34;;;18.68;70.08
38716;BME280;24833;49.324;8.694;2022-09-09T08:20:04;99444.34;;;18.82;70.08
38716;BME280;24833;49.324;8.694;2022-09-09T08:22:32;99451.22;;;18.95;70.47
38716;BME280;24833;49.324;8.694;2022-09-09T08:24:59;99444.53;;;19.08;69.92
38716;BME280;24833;49.324;8.694;2022-09-09T08:27:27;99453.53;;;19.18;69.94
38716;BME280;24833;49.324;8.694;2022-09-09T08:29:54;99446.84;;;19.31;69.65
38716;BME280;24833;49.324;8.694;2022-09-09T08:32:23;99446.94;;;19.41;69.60
38716;BME280;24833;49.324;8.694;2022-09-09T08:34:50;99450.78;;;19.50;69.21
38716;BME280;24833;49.324;8.694;2022-09-09T08:37:22;99451.69;;;19.61;69.10
38716;BME280;24833;49.324;8.694;2022-09-09T08:39:49;99463.09;;;19.68;68.83
38716;BME280;24833;49.324;8.694;2022-09-09T08:45:37;99484.53;;;19.75;67.90
38716;BME280;24833;49.324;8.694;2022-09-09T08:48:47;99494.50;;;19.64;67.01
38716;BME280;24833;49.324;8.694;2022-09-09T08:51:19;99489.50;;;19.51;66.95
38716;BME280;24833;49.324;8.694;2022-09-09T08:53:49;99495.66;;;19.36;66.80
38716;BME280;24833;49.324;8.694;2022-09-09T08:56:24;99489.31;;;19.20;66.49
38716;BME280;24833;49.324;8.694;2022-09-09T08:58:56;99482.16;;;19.09;66.76
38716;BME280;24833;49.324;8.694;2022-09-09T09:02:15;99472.31;;;18.98;66.12
38716;BME280;24833;49.324;8.694;2022-09-09T09:05:16;99478.22;;;18.90;66.42
38716;BME280;24833;49.324;8.694;2022-09-09T09:08:25;99487.41;;;18.89;66.79
38716;BME280;24833;49.324;8.694;2022-09-09T09:10:57;99492.00;;;18.88;67.12
38716;BME280;24833;49.324;8.694;2022-09-09T09:13:40;99479.03;;;18.90;67.15
38716;BME280;24833;49.324;8.694;2022-09-09T09:16:50;99479.34;;;18.94;67.08
38716;BME280;24833;49.324;8.694;2022-09-09T09:19:18;99479.34;;;18.94;68.03
38716;BME280;24833;49.324;8.694;2022-09-09T09:22:18;99480.50;;;19.03;67.79
38716;BME280;24833;49.324;8.694;2022-09-09T09:25:26;99478.88;;;19.02;67.71
38716;BME280;24833;49.324;8.694;2022-09-09T09:28:16;99477.78;;;19.03;68.07
38716;BME280;24833;49.324;8.694;2022-09-09T09:30:55;99472.44;;;19.08;68.04
38716;BME280;24833;49.324;8.694;2022-09-09T09:33:38;99474.91;;;19.15;68.78
38716;BME280;24833;49.324;8.694;2022-09-09T09:36:11;99477.66;;;19.20;69.04
38716;BME280;24833;49.324;8.694;2022-09-09T09:38:58;99482.31;;;19.29;68.65
38716;BME280;24833;49.324;8.694;2022-09-09T09:41:47;99472.09;;;19.37;69.09
38716;BME280;24833;49.324;8.694;2022-09-09T09:44:33;99480.28;;;19.47;68.74
38716;BME280;24833;49.324;8.694;2022-09-09T09:47:15;99460.84;;;19.55;69.20
38716;BME280;24833;49.324;8.694;2022-09-09T09:50:00;99461.47;;;19.67;69.61
38716;BME280;24833;49.324;8.694;2022-09-09T09:52:32;99451.75;;;19.76;69.44
38716;BME280;24833;49.324;8.694;2022-09-09T09:55:04;99452.38;;;19.89;69.31
38716;BME280;24833;49.324;8.694;2022-09-09T09:57:39;99464.88;;;20.00;69.51
38716;BME280;24833;49.324;8.694;2022-09-09T10:00:22;99464.94;;;20.15;69.71
38716;BME280;24833;49.324;8.694;2022-09-09T10:03:19;99466.09;;;20.34;69.60
38716;BME280;24833;49.324;8.694;2022-09-09T10:05:49;99462.63;;;20.49;70.01
38716;BME280;24833;49.324;8.694;2022-09-09T10:08:17;99465.91;;;20.66;69.00
38716;BME280;24833;49.324;8.694;2022-09-09T10:16:46;99487.34;;;20.78;66.67
38716;BME280;24833;49.324;8.694;2022-09-09T10:19:34;99480.31;;;20.67;66.01
38716;BME280;24833;49.324;8.694;2022-09-09T10:22:26;99483.00;;;20.67;65.82
38716;BME280;24833;49.324;8.694;2022-09-09T10:36:49;99465.91;;;20.61;66.56
38716;BME280;24833;49.324;8.694;2022-09-09T10:39:37;99455.31;;;20.65;66.44
38716;BME280;24833;49.324;8.694;2022-09-09T10:42:10;99458.84;;;20.65;66.82
38716;BME280;24833;49.324;8.694;2022-09-09T10:50:54;99445.28;;;20.76;66.09
38716;BME280;24833;49.324;8.694;2022-09-09T10:53:52;99443.66;;;20.85;65.43
38716;BME280;24833;49.324;8.694;2022-09-09T10:56:21;99435.81;;;20.93;65.56
38716;BME280;24833;49.324;8.694;2022-09-09T10:59:07;99441.50;;;21.02;64.58
38716;BME280;24833;49.324;8.694;2022-09-09T11:04:32;99436.31;;;21.21;64.88
38716;BME280;24833;49.324;8.694;2022-09-09T11:07:07;99447.19;;;21.36;65.82
38716;BME280;24833;49.324;8.694;2022-09-09T11:09:45;99455.88;;;21.43;64.75
38716;BME280;24833;49.324;8.694;2022-09-09T11:12:19;99433.28;;;21.53;64.55
38716;BME280;24833;49.324;8.694;2022-09-09T11:15:04;99436.50;;;21.65;65.23
38716;BME280;24833;49.324;8.694;2022-09-09T11:17:58;99445.97;;;21.78;64.79
38716;BME280;24833;49.324;8.694;2022-09-09T11:20:26;99450.81;;;21.91;64.56
38716;BME280;24833;49.324;8.694;2022-09-09T11:23:12;99439.34;;;22.10;62.75
38716;BME280;24833;49.324;8.694;2022-09-09T11:25:48;99436.00;;;22.28;64.27
38716;BME280;24833;49.324;8.694;2022-09-09T11:32:10;99448.13;;;22.85;63.76
38716;BME280;24833;49.324;8.694;2022-09-09T11:35:29;99448.91;;;22.96;60.99
38716;BME280;24833;49.324;8.694;2022-09-09T11:41:09;99440.16;;;23.28;61.41
38716;BME280;24833;49.324;8.694;2022-09-09T11:44:05;99425.56;;;23.43;61.41
38716;BME280;24833;49.324;8.694;2022-09-09T11:46:38;99438.81;;;23.54;60.10
38716;BME280;24833;49.324;8.694;2022-09-09T11:49:30;99431.03;;;23.67;59.15
38716;BME280;24833;49.324;8.694;2022-09-09T11:52:39;99414.16;;;23.64;56.82
38716;BME280;24833;49.324;8.694;2022-09-09T12:00:43;99405.19;;;23.64;59.61
38716;BME280;24833;49.324;8.694;2022-09-09T12:03:44;99404.38;;;23.63;57.77
38716;BME280;24833;49.324;8.694;2022-09-09T12:06:31;99402.25;;;23.55;58.67
38716;BME280;24833;49.324;8.694;2022-09-09T12:14:56;99404.56;;;23.43;58.18
38716;BME280;24833;49.324;8.694;2022-09-09T12:17:25;99409.03;;;23.34;57.63
38716;BME280;24833;49.324;8.694;2022-09-09T12:20:35;99399.09;;;23.19;57.46
38716;BME280;24833;49.324;8.694;2022-09-09T12:29:31;99429.16;;;22.75;54.90
38716;BME280;24833;49.324;8.694;2022-09-09T12:32:11;99419.16;;;22.60;56.59
38716;BME280;24833;49.324;8.694;2022-09-09T12:38:01;99412.63;;;22.22;55.72
38716;BME280;24833;49.324;8.694;2022-09-09T12:40:32;99409.44;;;22.10;56.56
38716;BME280;24833;49.324;8.694;2022-09-09T12:43:19;99408.91;;;22.02;56.78
38716;BME280;24833;49.324;8.694;2022-09-09T12:45:50;99416.56;;;21.95;57.24
38716;BME280;24833;49.324;8.694;2022-09-09T12:48:36;99409.00;;;21.82;57.60
38716;BME280;24833;49.324;8.694;2022-09-09T12:51:21;99412.31;;;21.74;57.44
38716;BME280;24833;49.324;8.694;2022-09-09T12:53:52;99412.59;;;21.67;57.52
38716;BME280;24833;49.324;8.694;2022-09-09T12:56:27;99417.50;;;21.60;57.55
38716;BME280;24833;49.324;8.694;2022-09-09T12:58:57;99422.16;;;21.49;57.68
38716;BME280;24833;49.324;8.694;2022-09-09T13:03:52;99424.91;;;21.34;58.09
38716;BME280;24833;49.324;8.694;2022-09-09T13:06:24;99418.94;;;21.27;58.22
38716;BME280;24833;49.324;8.694;2022-09-09T13:09:00;99417.31;;;21.21;58.30
38716;BME280;24833;49.324;8.694;2022-09-09T13:11:29;99417.84;;;21.13;58.35
38716;BME280;24833;49.324;8.694;2022-09-09T13:13:59;99412.69;;;21.06;58.45
38716;BME280;24833;49.324;8.694;2022-09-09T13:16:32;99410.81;;;21.02;58.11
38716;BME280;24833;49.324;8.694;2022-09-09T13:19:14;99408.09;;;20.97;58.15
38716;BME280;24833;49.324;8.694;2022-09-09T13:21:43;99421.66;;;20.91;58.37
38716;BME280;24833;49.324;8.694;2022-09-09T13:24:34;99419.78;;;20.87;58.38
38716;BME280;24833;49.324;8.694;2022-09-09T13:27:05;99435.78;;;20.83;58.26
38716;BME280;24833;49.324;8.694;2022-09-09T13:29:54;99465.91;;;20.72;58.51
38716;BME280;24833;49.324;8.694;2022-09-09T13:32:22;99493.31;;;20.60;61.03
38716;BME280;24833;49.324;8.694;2022-09-09T13:34:58;99466.59;;;20.31;60.99
38716;BME280;24833;49.324;8.694;2022-09-09T13:37:37;99467.00;;;19.88;60.17
38716;BME280;24833;49.324;8.694;2022-09-09T13:40:06;99477.88;;;19.50;59.95
38716;BME280;24833;49.324;8.694;2022-09-09T13:42:39;99466.53;;;19.16;59.65
38716;BME280;24833;49.324;8.694;2022-09-09T13:45:19;99460.31;;;18.84;58.60
38716;BME280;24833;49.324;8.694;2022-09-09T13:47:47;99453.53;;;18.54;59.29
38716;BME280;24833;49.324;8.694;2022-09-09T13:50:29;99440.00;;;18.27;58.07
38716;BME280;24833;49.324;8.694;2022-09-09T13:52:57;99426.25;;;18.07;60.16
38716;BME280;24833;49.324;8.694;2022-09-09T13:55:27;99412.53;;;17.91;60.09
38716;BME280;24833;49.324;8.694;2022-09-09T13:57:57;99408.34;;;17.79;60.23
38716;BME280;24833;49.324;8.694;2022-09-09T14:00:25;99405.00;;;17.72;60.47
38716;BME280;24833;49.324;8.694;2022-09-09T14:02:52;99396.59;;;17.68;61.14
38716;BME280;24833;49.324;8.694;2022-09-09T14:05:20;99412.53;;;17.69;61.72
38716;BME280;24833;49.324;8.694;2022-09-09T14:07:49;99407.72;;;17.72;61.97
38716;BME280;24833;49.324;8.694;2022-09-09T14:10:19;99408.34;;;17.79;62.08
38716;BME280;24833;49.324;8.694;2022-09-09T14:12:47;99401.44;;;17.88;62.51
38716;BME280;24833;49.324;8.694;2022-09-09T14:15:15;99399.72;;;18.04;63.77
38716;BME280;24833;49.324;8.694;2022-09-09T14:17:42;99403.16;;;18.21;64.26
38716;BME280;24833;49.324;8.694;2022-09-09T14:20:10;99394.94;;;18.38;64.31
38716;BME280;24833;49.324;8.694;2022-09-09T14:22:38;99397.00;;;18.52;64.00
38716;BME280;24833;49.324;8.694;2022-09-09T14:25:08;99395.72;;;18.65;64.18
38716;BME280;24833;49.324;8.694;2022-09-09T14:27:35;99392.06;;;18.76;64.22
38716;BME280;24833;49.324;8.694;2022-09-09T14:30:03;99399.75;;;18.90;63.97
38716;BME280;24833;49.324;8.694;2022-09-09T14:32:31;99386.28;;;19.00;64.08
38716;BME280;24833;49.324;8.694;2022-09-09T14:35:01;99397.22;;;19.15;64.47
38716;BME280;24833;49.324;8.694;2022-09-09T14:37:28;99398.13;;;19.31;64.48
38716;BME280;24833;49.324;8.694;2022-09-09T14:39:58;99399.03;;;19.47;64.85
38716;BME280;24833;49.324;8.694;2022-09-09T14:42:25;99392.59;;;19.58;64.23
38716;BME280;24833;49.324;8.694;2022-09-09T14:44:53;99392.94;;;19.72;64.71
38716;BME280;24833;49.324;8.694;2022-09-09T14:47:20;99397.59;;;19.81;64.64
38716;BME280;24833;49.324;8.694;2022-09-09T14:49:48;99402.50;;;19.95;64.87
38716;BME280;24833;49.324;8.694;2022-09-09T14:52:16;99397.09;;;20.05;64.41
38716;BME280;24833;49.324;8.694;2022-09-09T14:54:43;99399.84;;;20.15;64.70
38716;BME280;24833;49.324;8.694;2022-09-09T14:57:10;99395.81;;;20.28;64.60
38716;BME280;24833;49.324;8.694;2022-09-09T14:59:37;99404.78;;;20.33;64.20
38716;BME280;24833;49.324;8.694;2022-09-09T15:02:04;99407.47;;;20.38;64.02
38716;BME280;24833;49.324;8.694;2022-09-09T15:04:31;99411.81;;;20.39;64.09
38716;BME280;24833;49.324;8.694;2022-09-09T15:06:58;99414.28;;;20.36;63.75
38716;BME280;24833;49.324;8.694;2022-09-09T15:09:25;99406.94;;;20.31;63.63
38716;BME280;24833;49.324;8.694;2022-09-09T15:11:53;99409.09;;;20.29;63.15
38716;BME280;24833;49.324;8.694;2022-09-09T15:14:20;99399.88;;;20.25;63.33
38716;BME280;24833;49.324;8.694;2022-09-09T15:16:51;99393.66;;;20.20;63.20
38716;BME280;24833;49.324;8.694;2022-09-09T15:19:18;99385.22;;;20.16;63.33